Time;durP1;ratioP1;P1;durP2;ratioP2;P2;SDS_P1;SDS_P2;PMS_P1;PMS_P2;Temp;Humidity;BMP_temperature;BMP_pressure;BME280_temperature;BME280_humidity;BME280_pressure;Samples;Min_cycle;Max_cycle;Signal;HPM_P1;HPM_P2
2022/01/28 00:01:08;;;;;;;;;;;4.10;99.90;;;;;;6152939;23;19926;-85
2022/01/28 00:03:35;;;;;;;;;;;4.20;99.90;;;;;;6153483;23;19920;-87
2022/01/28 00:06:11;;;;;;;;;;;4.20;99.90;;;;;;6153368;23;19990;-87
2022/01/28 00:09:06;;;;;;;;;;;4.20;99.90;;;;;;6155832;23;19916;-85
2022/01/28 00:11:31;;;;;;;;;;;4.20;99.90;;;;;;6154677;23;20155;-85
2022/01/28 00:14:23;;;;;;;;;;;4.20;99.90;;;;;;6155720;23;19920;-85
2022/01/28 00:38:48;;;;;;;;;;;4.00;99.90;;;;;;6181748;23;19926;-86
2022/01/28 00:41:18;;;;;;;;;;;4.00;99.90;;;;;;6180162;23;19923;-87
2022/01/28 00:43:43;;;;;;;;;;;4.10;99.90;;;;;;6153888;23;20333;-87
2022/01/28 00:46:10;;;;;;;;;;;4.10;99.90;;;;;;6156210;23;20183;-85
2022/01/28 00:48:38;;;;;;;;;;;4.10;99.90;;;;;;6154261;23;20432;-85
2022/01/28 00:51:03;;;;;;;;;;;4.10;99.90;;;;;;6156598;23;19922;-84
2022/01/28 00:53:32;;;;;;;;;;;4.10;99.90;;;;;;6153354;23;20261;-86
2022/01/28 00:55:58;;;;;;;;;;;4.10;99.90;;;;;;6155299;23;19919;-85
2022/01/28 00:58:55;;;;;;;;;;;;;;;;;;;;;
2022/01/28 01:01:23;;;;;;;;;;;4.00;99.90;;;;;;6180326;23;19916;-86
2022/01/28 01:03:49;;;;;;;;;;;4.00;99.90;;;;;;6154645;23;20253;-87
2022/01/28 01:06:17;;;;;;;;;;;3.90;99.90;;;;;;6155734;23;19927;-85
2022/01/28 01:08:46;;;;;;;;;;;4.00;99.90;;;;;;6154723;23;19911;-83
2022/01/28 01:11:24;;;;;;;;;;;4.00;99.90;;;;;;6154302;23;19912;-86
2022/01/28 01:13:56;;;;;;;;;;;4.00;99.90;;;;;;6180499;23;20387;-84
2022/01/28 01:16:42;;;;;;;;;;;4.00;99.90;;;;;;6155833;23;19920;-86
2022/01/28 01:21:40;;;;;;;;;;;4.10;99.90;;;;;;6179842;23;19912;-85
2022/01/28 01:24:08;;;;;;;;;;;4.10;99.90;;;;;;6154950;23;19912;-86
2022/01/28 01:26:39;;;;;;;;;;;4.10;99.90;;;;;;6156576;23;20293;-86
2022/01/28 01:29:08;;;;;;;;;;;4.10;99.90;;;;;;6155303;23;19922;-85
2022/01/28 01:31:40;;;;;;;;;;;4.10;99.90;;;;;;6152356;23;20263;-86
2022/01/28 01:34:18;;;;;;;;;;;4.10;99.90;;;;;;6154573;23;19922;-86
2022/01/28 01:36:49;;;;;;;;;;;4.20;99.90;;;;;;6153938;23;19962;-85
2022/01/28 01:39:21;;;;;;;;;;;4.30;99.90;;;;;;6155872;23;19947;-87
2022/01/28 01:41:56;;;;;;;;;;;4.40;99.90;;;;;;6155511;23;19984;-85
2022/01/28 01:52:32;;;;;;;;;;;4.50;99.90;;;;;;6179556;23;19931;-86
2022/01/28 01:55:06;;;;;;;;;;;4.50;99.90;;;;;;6153438;23;20237;-87
2022/01/28 01:57:36;;;;;;;;;;;4.50;99.90;;;;;;6154749;23;19924;-86
2022/01/28 02:00:06;;;;;;;;;;;4.50;99.90;;;;;;6154659;23;19926;-86
2022/01/28 02:02:31;;;;;;;;;;;4.50;99.90;;;;;;6152852;23;19916;-86
2022/01/28 02:04:57;;;;;;;;;;;4.60;99.90;;;;;;6153487;23;19916;-85
2022/01/28 02:07:26;;;;;;;;;;;4.60;99.90;;;;;;6179231;23;19986;-85
2022/01/28 02:09:52;;;;;;;;;;;4.50;99.90;;;;;;6154084;23;20546;-85
2022/01/28 02:12:21;;;;;;;;;;;4.50;99.90;;;;;;6152917;23;19943;-87
2022/01/28 02:14:55;;;;;;;;;;;4.40;99.90;;;;;;6178115;23;19912;-87
2022/01/28 02:17:26;;;;;;;;;;;4.40;99.90;;;;;;6154355;23;19997;-86
2022/01/28 02:20:25;;;;;;;;;;;;;;;;;;;;;
2022/01/28 02:23:00;;;;;;;;;;;4.30;99.90;;;;;;6174198;23;19930;-85
2022/01/28 02:25:39;;;;;;;;;;;4.20;99.90;;;;;;6153572;23;19920;-86
2022/01/28 02:28:11;;;;;;;;;;;4.20;99.90;;;;;;6152887;23;19942;-84
2022/01/28 02:30:37;;;;;;;;;;;4.20;99.90;;;;;;6152936;23;19911;-85
2022/01/28 02:33:18;;;;;;;;;;;4.20;99.90;;;;;;6153184;23;20337;-85
2022/01/28 02:35:45;;;;;;;;;;;4.30;99.90;;;;;;6152667;23;19982;-87
2022/01/28 02:38:27;;;;;;;;;;;;;;;;;;;;;
2022/01/28 02:41:05;;;;;;;;;;;4.40;99.90;;;;;;6205021;23;19938;-85
2022/01/28 02:46:36;;;;;;;;;;;4.40;99.90;;;;;;6179387;23;19995;-86
2022/01/28 02:49:09;;;;;;;;;;;4.40;99.90;;;;;;6199184;23;20251;-85
2022/01/28 02:51:35;;;;;;;;;;;4.40;99.90;;;;;;6152442;23;19922;-88
2022/01/28 02:54:12;;;;;;;;;;;4.50;99.90;;;;;;6152575;23;19987;-85
2022/01/28 02:56:51;;;;;;;;;;;4.50;99.90;;;;;;6154210;23;19962;-86
2022/01/28 02:59:53;;;;;;;;;;;4.60;99.90;;;;;;6154497;23;19954;-87
2022/01/28 03:02:18;;;;;;;;;;;4.60;99.90;;;;;;6177581;23;19966;-84
2022/01/28 03:15:51;;;;;;;;;;;4.70;99.90;;;;;;6158728;23;20238;-84
2022/01/28 03:18:49;;;;;;;;;;;4.60;99.90;;;;;;6105605;23;19920;-86
2022/01/28 03:21:40;;;;;;;;;;;4.70;99.90;;;;;;6119319;23;19923;-85
2022/01/28 03:24:10;;;;;;;;;;;4.70;99.90;;;;;;6127502;23;19912;-85
2022/01/28 03:26:36;;;;;;;;;;;4.60;99.90;;;;;;6126337;23;19920;-82
2022/01/28 03:29:11;;;;;;;;;;;4.70;99.90;;;;;;6126969;23;19916;-86
2022/01/28 03:31:50;;;;;;;;;;;4.70;99.90;;;;;;6122726;23;19951;-85
2022/01/28 03:34:18;;;;;;;;;;;4.70;99.90;;;;;;6126126;23;19966;-86
2022/01/28 03:36:56;;;;;;;;;;;4.80;99.90;;;;;;6127135;23;19927;-86
2022/01/28 03:39:27;;;;;;;;;;;4.80;99.90;;;;;;6102890;23;19912;-85
2022/01/28 03:41:52;;;;;;;;;;;4.80;99.90;;;;;;6124504;23;20010;-86
2022/01/28 03:44:29;;;;;;;;;;;4.80;99.90;;;;;;6126328;23;19952;-89
2022/01/28 03:49:52;;;;;;;;;;;4.80;99.90;;;;;;6149700;23;20341;-87
2022/01/28 03:52:24;;;;;;;;;;;4.80;99.90;;;;;;6099984;23;19943;-87
2022/01/28 03:55:20;;;;;;;;;;;4.80;99.90;;;;;;6125421;23;19912;-90
2022/01/28 03:57:51;;;;;;;;;;;4.80;99.90;;;;;;6124099;23;20317;-86
2022/01/28 04:00:28;;;;;;;;;;;4.70;99.90;;;;;;6102699;23;19912;-87
2022/01/28 04:17:25;;;;;;;;;;;4.80;99.90;;;;;;6149022;23;19916;-88
2022/01/28 04:19:54;;;;;;;;;;;4.80;99.90;;;;;;6124846;23;20037;-87
2022/01/28 04:22:42;;;;;;;;;;;4.80;99.90;;;;;;6124205;23;19935;-91
2022/01/28 04:25:08;;;;;;;;;;;4.80;99.90;;;;;;6124719;23;19912;-88
2022/01/28 04:27:39;;;;;;;;;;;4.70;99.90;;;;;;6126164;23;19912;-91
2022/01/28 04:30:14;;;;;;;;;;;4.60;99.90;;;;;;6125978;23;20097;-85
2022/01/28 04:35:46;;;;;;;;;;;4.60;99.90;;;;;;6127292;23;19920;-87
2022/01/28 04:38:43;;;;;;;;;;;4.50;99.90;;;;;;6124270;23;19962;-89
2022/01/28 04:51:42;;;;;;;;;;;;;;;;;;;;;
2022/01/28 04:57:45;;;;;;;;;;;4.10;99.90;;;;;;6150196;23;19924;-89
2022/01/28 05:24:11;;;;;;;;;;;4.00;99.90;;;;;;6127655;23;19916;-89
2022/01/28 05:27:18;;;;;;;;;;;4.00;99.90;;;;;;6147365;23;19991;-89
2022/01/28 05:30:10;;;;;;;;;;;4.00;99.90;;;;;;6104319;23;19912;-90
2022/01/28 05:32:45;;;;;;;;;;;4.00;99.90;;;;;;6091464;23;19939;-89
2022/01/28 05:40:16;;;;;;;;;;;3.90;99.90;;;;;;6241071;23;20133;-87
2022/01/28 05:49:20;;;;;;;;;;;3.80;99.90;;;;;;6214204;23;19916;-89
2022/01/28 05:55:27;;;;;;;;;;;3.70;99.90;;;;;;6177926;23;20160;-90
2022/01/28 06:20:02;;;;;;;;;;;3.80;99.90;;;;;;6183354;22;19982;-86
2022/01/28 06:29:28;;;;;;;;;;;3.90;99.90;;;;;;6056403;23;20299;-88
2022/01/28 06:38:26;;;;;;;;;;;4.10;99.90;;;;;;6235683;23;19923;-88
2022/01/28 06:44:25;;;;;;;;;;;4.20;99.90;;;;;;6181058;23;19911;-87
2022/01/28 06:47:13;;;;;;;;;;;4.20;99.90;;;;;;6189449;23;20336;-88
2022/01/28 06:49:47;;;;;;;;;;;4.30;99.90;;;;;;6202630;23;19939;-87
2022/01/28 06:52:45;;;;;;;;;;;4.30;99.90;;;;;;6169215;23;19939;-87
2022/01/28 06:55:21;;;;;;;;;;;4.30;99.90;;;;;;6194132;23;19993;-86
2022/01/28 06:57:56;;;;;;;;;;;4.30;99.90;;;;;;6189052;23;19919;-88
2022/01/28 07:00:35;;;;;;;;;;;4.30;99.90;;;;;;6186739;23;19911;-86
2022/01/28 07:03:21;;;;;;;;;;;4.40;99.90;;;;;;6190606;23;19919;-87
2022/01/28 07:06:16;;;;;;;;;;;4.40;99.90;;;;;;6187777;23;19977;-88
2022/01/28 07:09:01;;;;;;;;;;;4.40;99.90;;;;;;6152613;23;19915;-88
2022/01/28 07:17:57;;;;;;;;;;;4.20;99.90;;;;;;6200375;23;19993;-88
2022/01/28 07:23:31;;;;;;;;;;;4.00;99.90;;;;;;6197383;23;20317;-88
2022/01/28 07:36:39;;;;;;;;;;;3.70;99.90;;;;;;6211480;23;20249;-88
2022/01/28 07:39:35;;;;;;;;;;;;;;;;;;;;;
2022/01/28 07:42:20;;;;;;;;;;;;;;;;;;;;;
2022/01/28 07:44:59;;;;;;;;;;;3.40;99.90;;;;;;6216818;22;19911;-88
2022/01/28 07:47:27;;;;;;;;;;;3.30;99.90;;;;;;6186401;23;19912;-88
2022/01/28 07:53:18;;;;;;;;;;;;;;;;;;;;;
2022/01/28 08:25:53;;;;;;;;;;;;;;;;;;;;;
2022/01/28 08:28:31;;;;;;;;;;;3.30;99.90;;;;;;6044064;23;19914;-87
2022/01/28 08:31:04;;;;;;;;;;;3.40;99.90;;;;;;6040473;23;20112;-87
2022/01/28 08:37:17;;;;;;;;;;;3.60;99.90;;;;;;6061300;23;19917;-88
2022/01/28 08:39:57;;;;;;;;;;;3.70;99.90;;;;;;6063109;23;19917;-87
2022/01/28 08:42:29;;;;;;;;;;;3.80;99.90;;;;;;6044837;23;19949;-86
2022/01/28 08:45:15;;;;;;;;;;;3.90;99.90;;;;;;6043662;23;20223;-86
2022/01/28 08:48:23;;;;;;;;;;;3.90;99.90;;;;;;6046764;23;20136;-86
2022/01/28 08:54:35;;;;;;;;;;;3.90;99.90;;;;;;5962677;24;19923;-86
2022/01/28 08:57:13;;;;;;;;;;;4.00;99.90;;;;;;5936346;24;19954;-86
2022/01/28 09:00:06;;;;;;;;;;;4.00;99.90;;;;;;5940315;24;20261;-87
2022/01/28 09:03:08;;;;;;;;;;;;;;;;;;;;;
2022/01/28 09:06:21;;;;;;;;;;;4.10;99.90;;;;;;6118354;23;19911;-88
2022/01/28 09:29:03;;;;;;;;;;;4.60;99.90;;;;;;6030714;23;19959;-86
2022/01/28 09:31:29;;;;;;;;;;;4.70;99.90;;;;;;6053730;23;19913;-85
2022/01/28 09:34:03;;;;;;;;;;;4.80;99.90;;;;;;6039951;23;19917;-85
2022/01/28 09:36:39;;;;;;;;;;;4.80;99.90;;;;;;6040501;23;19956;-86
2022/01/28 09:39:42;;;;;;;;;;;;;;;;;;;;;
2022/01/28 09:42:18;;;;;;;;;;;5.00;99.90;;;;;;6055087;23;19988;-86
2022/01/28 09:44:54;;;;;;;;;;;;;;;;;;;;;
2022/01/28 09:47:41;;;;;;;;;;;5.20;99.90;;;;;;6241066;23;19912;-87
2022/01/28 09:50:32;;;;;;;;;;;5.30;99.90;;;;;;6163826;23;19911;-86
2022/01/28 09:53:32;;;;;;;;;;;5.40;99.90;;;;;;6213589;23;19911;-87
2022/01/28 10:03:08;;;;;;;;;;;5.60;99.90;;;;;;6189477;23;19964;-86
2022/01/28 10:05:54;;;;;;;;;;;5.80;99.90;;;;;;6179505;23;20329;-85
2022/01/28 10:08:52;;;;;;;;;;;5.90;99.90;;;;;;6167310;23;20372;-87
2022/01/28 10:11:48;;;;;;;;;;;5.90;99.90;;;;;;6183809;23;19994;-85
2022/01/28 10:14:21;;;;;;;;;;;6.00;99.90;;;;;;6182329;23;19918;-86
2022/01/28 10:17:43;;;;;;;;;;;6.10;99.90;;;;;;6179980;23;20261;-87
2022/01/28 10:20:10;;;;;;;;;;;6.10;99.90;;;;;;6101831;23;20330;-86
2022/01/28 10:22:48;;;;;;;;;;;6.10;99.90;;;;;;6099119;23;20643;-85
2022/01/28 10:25:27;;;;;;;;;;;6.20;99.90;;;;;;6098349;23;19916;-84
2022/01/28 10:31:38;;;;;;;;;;;6.20;99.90;;;;;;6121124;23;19927;-85
2022/01/28 10:39:40;;;;;;;;;;;6.40;99.90;;;;;;6237958;22;20139;-84
2022/01/28 10:42:29;;;;;;;;;;;6.50;99.90;;;;;;6185791;23;19911;-87
2022/01/28 10:45:30;;;;;;;;;;;6.50;99.90;;;;;;6192724;23;20236;-85
2022/01/28 10:51:22;;;;;;;;;;;6.60;99.90;;;;;;6232490;23;19911;-87
2022/01/28 10:57:29;;;;;;;;;;;6.70;99.90;;;;;;6148061;23;19960;-85
2022/01/28 11:00:21;;;;;;;;;;;;;;;;;;;;;
2022/01/28 11:09:04;;;;;;;;;;;7.00;99.90;;;;;;6210965;23;20230;-85
2022/01/28 11:11:36;;;;;;;;;;;7.00;99.90;;;;;;6185497;23;19938;-86
2022/01/28 11:15:13;;;;;;;;;;;7.10;99.90;;;;;;6186559;23;19911;-87
2022/01/28 11:17:51;;;;;;;;;;;7.20;99.90;;;;;;6186132;23;19915;-87
2022/01/28 11:27:23;;;;;;;;;;;7.20;99.90;;;;;;6142823;23;19963;-86
2022/01/28 11:30:08;;;;;;;;;;;7.20;99.90;;;;;;6180690;23;20341;-86
2022/01/28 11:33:04;;;;;;;;;;;7.20;99.90;;;;;;6185046;23;19986;-85
2022/01/28 11:35:56;;;;;;;;;;;7.30;99.90;;;;;;6025448;23;19957;-88
2022/01/28 11:38:42;;;;;;;;;;;7.40;99.90;;;;;;6027553;23;20247;-88
2022/01/28 11:41:46;;;;;;;;;;;7.50;99.90;;;;;;6112079;23;19943;-87
2022/01/28 11:44:35;;;;;;;;;;;7.50;99.90;;;;;;6109358;23;20019;-87
2022/01/28 11:47:01;;;;;;;;;;;7.60;99.90;;;;;;6092332;23;19927;-85
2022/01/28 11:49:26;;;;;;;;;;;7.70;99.90;;;;;;6094791;23;19912;-86
2022/01/28 11:51:52;;;;;;;;;;;7.60;99.90;;;;;;6111372;23;19915;-84
2022/01/28 11:57:09;;;;;;;;;;;7.50;99.90;;;;;;6268366;22;19919;-84
2022/01/28 11:59:50;;;;;;;;;;;7.50;99.90;;;;;;6217704;22;19923;-84
2022/01/28 12:02:50;;;;;;;;;;;7.50;99.90;;;;;;6235296;22;19915;-85
2022/01/28 12:05:31;;;;;;;;;;;7.50;99.90;;;;;;6214612;22;19911;-85
2022/01/28 12:08:01;;;;;;;;;;;7.60;99.90;;;;;;6217537;22;20263;-85
2022/01/28 12:10:31;;;;;;;;;;;7.80;99.90;;;;;;6216909;22;20243;-85
2022/01/28 12:13:02;;;;;;;;;;;8.00;99.90;;;;;;6193304;22;19919;-85
2022/01/28 12:15:31;;;;;;;;;;;7.90;99.90;;;;;;6194908;22;19919;-85
2022/01/28 12:18:30;;;;;;;;;;;7.80;99.90;;;;;;6184540;22;19930;-86
2022/01/28 12:20:58;;;;;;;;;;;7.80;99.90;;;;;;6216131;22;20360;-88
2022/01/28 12:23:27;;;;;;;;;;;7.90;99.90;;;;;;6217222;22;19911;-85
2022/01/28 12:25:57;;;;;;;;;;;8.00;99.90;;;;;;6219437;22;20306;-84
2022/01/28 12:28:36;;;;;;;;;;;8.00;99.90;;;;;;6216751;22;20111;-86
2022/01/28 12:34:06;;;;;;;;;;;7.90;99.90;;;;;;6232281;22;20255;-85
2022/01/28 12:36:56;;;;;;;;;;;7.90;99.90;;;;;;6234634;22;20188;-86
2022/01/28 12:39:33;;;;;;;;;;;7.90;99.90;;;;;;6192722;22;20005;-86
2022/01/28 12:42:41;;;;;;;;;;;7.90;99.90;;;;;;6226330;22;19939;-84
2022/01/28 12:44:52;;;;;;;;;;;7.90;99.90;;;;;;6219542;22;19988;-86
2022/01/28 12:47:18;;;;;;;;;;;7.90;99.90;;;;;;6222658;22;19911;-85
2022/01/28 12:49:46;;;;;;;;;;;8.00;99.90;;;;;;6191935;22;20283;-85
2022/01/28 12:52:27;;;;;;;;;;;8.50;99.90;;;;;;6221215;22;19917;-85
2022/01/28 12:55:14;;;;;;;;;;;8.80;99.90;;;;;;6218332;22;19918;-86
2022/01/28 12:57:53;;;;;;;;;;;9.00;99.90;;;;;;6223335;22;19915;-87
2022/01/28 13:00:22;;;;;;;;;;;9.70;99.90;;;;;;6220708;22;19964;-86
2022/01/28 13:03:28;;;;;;;;;;;10.50;99.90;;;;;;6216714;22;20102;-86
2022/01/28 13:06:24;;;;;;;;;;;11.00;99.90;;;;;;6092986;23;20369;-85
2022/01/28 13:08:54;;;;;;;;;;;10.80;99.90;;;;;;6179959;23;20079;-86
2022/01/28 13:12:09;;;;;;;;;;;;;;;;;;;;;
2022/01/28 13:14:49;;;;;;;;;;;10.20;99.90;;;;;;6204799;23;19914;-85
2022/01/28 13:24:08;;;;;;;;;;;9.40;99.90;;;;;;6192981;23;19911;-85
2022/01/28 13:26:34;;;;;;;;;;;9.20;99.90;;;;;;6155334;23;19972;-87
2022/01/28 13:29:04;;;;;;;;;;;9.00;99.90;;;;;;6160278;23;19916;-85
2022/01/28 13:31:35;;;;;;;;;;;8.80;99.90;;;;;;6155261;23;19919;-85
2022/01/28 13:34:05;;;;;;;;;;;8.70;99.90;;;;;;6154848;23;19919;-86
2022/01/28 13:36:51;;;;;;;;;;;8.40;99.90;;;;;;6174440;22;20367;-87
2022/01/28 13:39:28;;;;;;;;;;;8.30;99.90;;;;;;6216369;22;19926;-86
2022/01/28 13:42:26;;;;;;;;;;;;;;;;;;;;;
2022/01/28 14:50:16;;;;;;;;;;;7.50;99.90;;;;;;6246721;22;19922;-86
2022/01/28 14:53:05;;;;;;;;;;;7.60;99.90;;;;;;6137429;23;19915;-84
2022/01/28 14:55:43;;;;;;;;;;;7.50;99.90;;;;;;6189331;23;19919;-83
2022/01/28 14:58:14;;;;;;;;;;;7.50;99.90;;;;;;6166350;23;19922;-84
2022/01/28 15:00:59;;;;;;;;;;;7.50;99.90;;;;;;6188329;23;20462;-84
2022/01/28 15:03:33;;;;;;;;;;;7.40;99.90;;;;;;6164027;23;20225;-85
2022/01/28 15:09:18;;;;;;;;;;;7.30;99.90;;;;;;6214024;23;19911;-86
2022/01/28 15:12:16;;;;;;;;;;;7.20;99.90;;;;;;6187467;23;19981;-85
2022/01/28 15:26:06;;;;;;;;;;;6.90;99.90;;;;;;6274879;22;19926;-86
2022/01/28 16:03:01;;;;;;;;;;;6.20;99.90;;;;;;6054187;23;19953;-85
2022/01/28 16:36:15;;;;;;;;;;;;;;;;;;;;;
2022/01/28 16:42:11;;;;;;;;;;;5.70;99.90;;;;;;6140602;23;19922;-84
2022/01/28 16:45:09;;;;;;;;;;;5.70;99.90;;;;;;6096665;23;20017;-86
2022/01/28 16:47:41;;;;;;;;;;;5.70;99.90;;;;;;6057830;23;19917;-85
2022/01/28 16:50:09;;;;;;;;;;;5.60;99.90;;;;;;6147394;23;19987;-85
2022/01/28 16:52:40;;;;;;;;;;;5.60;99.90;;;;;;6181637;22;20240;-86
2022/01/28 16:55:29;;;;;;;;;;;5.60;99.90;;;;;;6216847;22;19915;-85
2022/01/28 16:57:58;;;;;;;;;;;5.60;99.90;;;;;;6216207;22;19922;-85
2022/01/28 17:00:32;;;;;;;;;;;5.60;99.90;;;;;;6216457;22;20227;-86
2022/01/28 17:03:20;;;;;;;;;;;5.50;99.90;;;;;;6213503;22;19915;-85
2022/01/28 17:14:38;;;;;;;;;;;5.50;99.90;;;;;;6147912;23;19974;-85
2022/01/28 17:28:08;;;;;;;;;;;5.30;99.90;;;;;;6059799;23;19953;-85
2022/01/28 17:35:16;;;;;;;;;;;5.30;99.90;;;;;;6029745;23;20442;-85
2022/01/28 17:41:56;;;;;;;;;;;5.20;99.90;;;;;;6001423;23;20330;-86
2022/01/28 17:55:34;;;;;;;;;;;5.10;99.90;;;;;;6002000;23;20391;-86
2022/01/28 18:09:17;;;;;;;;;;;5.10;99.90;;;;;;5853401;24;19927;-86
2022/01/28 18:19:13;;;;;;;;;;;5.00;99.90;;;;;;5844487;24;19934;-86
2022/01/28 19:03:08;;;;;;;;;;;;;;;;;;;;;
2022/01/28 19:13:17;;;;;;;;;;;5.60;99.90;;;;;;6115095;23;19927;-86
2022/01/28 19:19:58;;;;;;;;;;;5.60;99.90;;;;;;6082707;23;19977;-90
2022/01/28 19:22:32;;;;;;;;;;;5.60;99.90;;;;;;6009456;23;19921;-87
2022/01/28 19:31:39;;;;;;;;;;;5.70;99.90;;;;;;6149721;23;19920;-88
2022/01/28 19:34:49;;;;;;;;;;;5.80;99.90;;;;;;6150562;23;19983;-87
2022/01/28 19:37:31;;;;;;;;;;;5.80;99.90;;;;;;6147430;23;19920;-87
2022/01/28 19:40:29;;;;;;;;;;;;;;;;;;;;;
2022/01/28 19:52:08;;;;;;;;;;;6.00;99.90;;;;;;6236627;22;19920;-86
2022/01/28 19:54:37;;;;;;;;;;;6.00;99.90;;;;;;6189203;23;19915;-85
2022/01/28 19:57:42;;;;;;;;;;;;;;;;;;;;;
2022/01/28 20:03:59;;;;;;;;;;;6.00;99.90;;;;;;6208972;23;20219;-85
2022/01/28 20:07:22;;;;;;;;;;;6.00;99.90;;;;;;6085879;23;19917;-87
2022/01/28 20:10:01;;;;;;;;;;;6.00;99.90;;;;;;6150749;23;19915;-84
2022/01/28 20:13:22;;;;;;;;;;;;;;;;;;;;;
2022/01/28 20:16:06;;;;;;;;;;;6.10;99.90;;;;;;6163599;23;19919;-84
2022/01/28 20:18:38;;;;;;;;;;;6.10;99.90;;;;;;6154442;23;20260;-86
2022/01/28 20:24:59;;;;;;;;;;;6.20;99.90;;;;;;6156395;23;19916;-86
2022/01/28 20:27:27;;;;;;;;;;;6.20;99.90;;;;;;6094071;23;19940;-86
2022/01/28 20:30:15;;;;;;;;;;;6.20;99.90;;;;;;6116365;23;19916;-84
2022/01/28 20:32:53;;;;;;;;;;;;;;;;;;;;;
2022/01/28 20:35:41;;;;;;;;;;;6.30;99.90;;;;;;6117084;23;19970;-86
2022/01/28 20:38:43;;;;;;;;;;;;;;;;;;;;;
2022/01/28 20:41:48;;;;;;;;;;;6.40;99.90;;;;;;6187793;23;19919;-85
2022/01/28 20:44:17;;;;;;;;;;;6.30;99.90;;;;;;6160629;23;19923;-86
2022/01/28 20:47:09;;;;;;;;;;;6.40;99.90;;;;;;6183775;23;19915;-86
2022/01/28 20:49:43;;;;;;;;;;;6.40;99.90;;;;;;6177004;23;19923;-91
2022/01/28 20:52:21;;;;;;;;;;;6.40;99.90;;;;;;6173769;23;19912;-85
2022/01/28 20:54:47;;;;;;;;;;;6.50;99.90;;;;;;6160251;23;19967;-89
2022/01/28 20:57:15;;;;;;;;;;;6.50;99.90;;;;;;6132055;23;20261;-86
2022/01/28 21:00:17;;;;;;;;;;;6.50;99.90;;;;;;6210765;23;19915;-89
2022/01/28 21:11:34;;;;;;;;;;;6.50;99.90;;;;;;6206598;23;19915;-86
2022/01/28 21:14:06;;;;;;;;;;;6.50;99.90;;;;;;6158515;23;19912;-85
2022/01/28 21:16:42;;;;;;;;;;;6.50;99.90;;;;;;6181196;23;19927;-88
2022/01/28 21:19:16;;;;;;;;;;;6.60;99.90;;;;;;6182701;23;19912;-87
2022/01/28 21:25:24;;;;;;;;;;;6.50;99.90;;;;;;6263309;22;19916;-85
2022/01/28 21:27:54;;;;;;;;;;;6.60;99.90;;;;;;6190887;23;19983;-84
2022/01/28 21:30:26;;;;;;;;;;;6.60;99.90;;;;;;6163335;23;19911;-88
2022/01/28 21:32:51;;;;;;;;;;;6.50;99.90;;;;;;6189643;23;20326;-86
2022/01/28 21:35:17;;;;;;;;;;;6.60;99.90;;;;;;6212963;23;19978;-84
2022/01/28 21:37:43;;;;;;;;;;;6.60;99.90;;;;;;6188643;23;19915;-84
2022/01/28 21:40:09;;;;;;;;;;;6.60;99.90;;;;;;6188007;23;19911;-85
2022/01/28 21:42:36;;;;;;;;;;;6.60;99.90;;;;;;6187836;23;19926;-83
2022/01/28 21:45:08;;;;;;;;;;;6.60;99.90;;;;;;6191188;23;19922;-84
2022/01/28 21:47:44;;;;;;;;;;;6.60;99.90;;;;;;6188403;23;19923;-86
2022/01/28 21:50:13;;;;;;;;;;;6.60;99.90;;;;;;6188995;23;20005;-83
2022/01/28 21:52:57;;;;;;;;;;;6.50;99.90;;;;;;6187679;23;19986;-86
2022/01/28 21:55:38;;;;;;;;;;;6.60;99.90;;;;;;6238751;22;19915;-87
2022/01/28 21:58:19;;;;;;;;;;;;;;;;;;;;;
2022/01/28 22:00:51;;;;;;;;;;;6.70;99.90;;;;;;6213771;23;19911;-88
2022/01/28 22:03:22;;;;;;;;;;;6.70;99.90;;;;;;6198526;23;19911;-88
2022/01/28 22:08:43;;;;;;;;;;;6.70;99.90;;;;;;6228591;23;20385;-85
2022/01/28 22:11:16;;;;;;;;;;;6.70;99.90;;;;;;6202218;23;19911;-85
2022/01/28 22:13:44;;;;;;;;;;;6.70;99.90;;;;;;6205056;23;19912;-87
2022/01/28 22:16:20;;;;;;;;;;;6.70;99.90;;;;;;6197832;23;19926;-86
2022/01/28 22:18:49;;;;;;;;;;;6.70;99.90;;;;;;6193315;23;19933;-85
2022/01/28 22:21:28;;;;;;;;;;;6.70;99.90;;;;;;6248828;23;19915;-87
2022/01/28 22:23:54;;;;;;;;;;;6.70;99.90;;;;;;6199421;23;19983;-84
2022/01/28 22:26:23;;;;;;;;;;;6.70;99.90;;;;;;6176701;23;19927;-88
2022/01/28 22:28:50;;;;;;;;;;;6.70;99.90;;;;;;6194470;23;20336;-87
2022/01/28 22:31:16;;;;;;;;;;;6.80;99.90;;;;;;6177622;23;20359;-87
2022/01/28 22:33:42;;;;;;;;;;;6.80;99.90;;;;;;6196390;23;20300;-87
2022/01/28 22:36:08;;;;;;;;;;;6.80;99.90;;;;;;6198548;23;19919;-84
2022/01/28 22:38:34;;;;;;;;;;;6.80;99.90;;;;;;6159964;23;19922;-85
2022/01/28 22:41:05;;;;;;;;;;;6.80;99.90;;;;;;6161011;23;19926;-88
2022/01/28 22:43:33;;;;;;;;;;;6.90;99.90;;;;;;6160489;23;19915;-84
2022/01/28 22:45:59;;;;;;;;;;;6.80;99.90;;;;;;6186671;23;19916;-86
2022/01/28 22:48:25;;;;;;;;;;;6.80;99.90;;;;;;6186016;23;19922;-87
2022/01/28 22:50:52;;;;;;;;;;;6.80;99.90;;;;;;6161929;23;19937;-87
2022/01/28 22:53:18;;;;;;;;;;;6.80;99.90;;;;;;6185028;23;19918;-85
2022/01/28 22:55:47;;;;;;;;;;;6.80;99.90;;;;;;6186326;23;19924;-86
2022/01/28 22:58:13;;;;;;;;;;;6.80;99.90;;;;;;6183966;23;19919;-85
2022/01/28 23:00:41;;;;;;;;;;;6.80;99.90;;;;;;6184142;23;19934;-84
2022/01/28 23:03:10;;;;;;;;;;;6.80;99.90;;;;;;6185145;23;19918;-86
2022/01/28 23:05:38;;;;;;;;;;;6.80;99.90;;;;;;6197110;23;19961;-86
2022/01/28 23:08:04;;;;;;;;;;;6.90;99.90;;;;;;6193045;23;19929;-85
2022/01/28 23:10:30;;;;;;;;;;;6.90;99.90;;;;;;6186847;23;19912;-87
2022/01/28 23:12:56;;;;;;;;;;;6.90;99.90;;;;;;6184217;23;20230;-84
2022/01/28 23:15:21;;;;;;;;;;;6.90;99.90;;;;;;6161078;23;19911;-83
2022/01/28 23:17:47;;;;;;;;;;;6.90;99.90;;;;;;6159610;23;19925;-87
2022/01/28 23:20:14;;;;;;;;;;;6.90;99.90;;;;;;6160922;23;19950;-86
2022/01/28 23:22:42;;;;;;;;;;;6.90;99.90;;;;;;6161666;23;19911;-85
2022/01/28 23:25:09;;;;;;;;;;;6.80;99.90;;;;;;6160002;23;19922;-87
2022/01/28 23:27:44;;;;;;;;;;;6.80;99.90;;;;;;6184467;23;19919;-88
2022/01/28 23:30:17;;;;;;;;;;;6.80;99.90;;;;;;6186048;23;19918;-87
2022/01/28 23:32:45;;;;;;;;;;;6.80;99.90;;;;;;6184586;23;19911;-85
2022/01/28 23:35:11;;;;;;;;;;;6.80;99.90;;;;;;6208081;23;19916;-84
2022/01/28 23:37:37;;;;;;;;;;;6.80;99.90;;;;;;6233665;23;20362;-85
2022/01/28 23:40:07;;;;;;;;;;;6.90;99.90;;;;;;6206565;23;19911;-88
2022/01/28 23:42:34;;;;;;;;;;;6.90;99.90;;;;;;6205777;23;20119;-85
2022/01/28 23:45:00;;;;;;;;;;;6.90;99.90;;;;;;6184231;23;19911;-84
2022/01/28 23:47:28;;;;;;;;;;;6.90;99.90;;;;;;6158435;23;19911;-85
2022/01/28 23:49:54;;;;;;;;;;;6.90;99.90;;;;;;6182155;23;19919;-84
2022/01/28 23:52:24;;;;;;;;;;;6.90;99.90;;;;;;6183163;23;19922;-85
2022/01/28 23:54:52;;;;;;;;;;;6.90;99.90;;;;;;6159242;22;20289;-85
2022/01/28 23:57:18;;;;;;;;;;;7.00;99.90;;;;;;6161851;23;19999;-85
2022/01/28 23:59:46;;;;;;;;;;;7.00;99.90;;;;;;6212927;23;19950;-85
